Darstellungsparameter: Aktuell verwendete Einstellungen:
Skalierung der Graphiken ... ?
xyx+y,   Skalierungsfaktor:      Skalierung: Modus: x, Faktor: 1
Darstellungszeitraum ... ?
Vom - - bis: - -   Zeitraum: 18.11.2018 - 18.11.2018
Min/Max/Avg-Anzeige ... ?
Zeige MMA aktuell
Zeige MMA Monat
Zeige MMA alles
Zeige --A aktuell
Zeige --A Monat
Zeige --A alles
Keine MMA-Anzeige
MMA:
Keine MMA-Graphiken
MMA-Basis: 18.11.2018 - 18.11.2018
Quicknavigation für Darstellung... ?
Tage:      1T, 2T, 3T, 5T -1T -2T -3T -5T +1T +2T +3T +5T
Wochen: 1W, 2W, 3W -1W -2W -3W +1W +2W +3W
Monate: 1M, 3M, 6M -1M -3M -6M +1M +3M +6M
Jahre:    1J, 3J, 5J, 10J -1J -3J -5J -10J +1J +3J +5J +10J
Nutze für die Darstellung ... ?
Originaldaten oder Mittelwerte auf ...
Stundenbasis Tagesbasis Wochenbasis
Monatsbasis Jahresbasis      Datenbasis: Original-Daten
Darstellen als:
Statistik (Auto) Statistik J:M      Darstellung:
Zur Graphik,    zurück zur Übersicht aller Sensoren.
 
Tabellarische Datenbersicht: ?
 
Sensor: Nr:Datum:Temp:Feuchte:Taupunkt:
Aussen-T/F 1 18-11-2018 00:00:00 3 C 81 % 0.07 C
2 18-11-2018 00:05:00 2.8 C 81 % -0.13 C
3 18-11-2018 00:10:00 2.7 C 82 % -0.06 C
4 18-11-2018 00:15:00 2.7 C 82 % -0.06 C
5 18-11-2018 00:20:00 2.7 C 83 % 0.11 C
6 18-11-2018 00:25:00 2.6 C 83 % 0.01 C
7 18-11-2018 00:30:00 2.6 C 84 % 0.18 C
8 18-11-2018 00:35:00 2.6 C 83 % 0.01 C
9 18-11-2018 00:40:00 2.6 C 83 % 0.01 C
10 18-11-2018 00:45:00 2.6 C 84 % 0.18 C
11 18-11-2018 00:50:00 2.6 C 84 % 0.18 C
12 18-11-2018 00:55:00 2.6 C 84 % 0.18 C
13 18-11-2018 01:00:00 2.7 C 83 % 0.11 C
14 18-11-2018 01:05:00 2.7 C 83 % 0.11 C
15 18-11-2018 01:10:00 2.6 C 83 % 0.01 C
16 18-11-2018 01:15:00 2.6 C 83 % 0.01 C
17 18-11-2018 01:20:00 2.6 C 84 % 0.18 C
18 18-11-2018 01:25:00 2.4 C 84 % -0.02 C
19 18-11-2018 01:30:00 2.3 C 85 % 0.04 C
20 18-11-2018 01:35:00 2.2 C 85 % -0.05 C
21 18-11-2018 01:40:00 2.1 C 85 % -0.15 C
22 18-11-2018 01:45:00 2.2 C 86 % 0.11 C
23 18-11-2018 01:50:00 2.2 C 85 % -0.05 C
24 18-11-2018 01:55:00 2 C 86 % -0.09 C
25 18-11-2018 02:00:00 1.9 C 86 % -0.19 C
Sensor: Nr:Datum:Temp:Feuchte:Taupunkt:
Aussen-T/F 26 18-11-2018 02:05:00 1.9 C 87 % -0.03 C
27 18-11-2018 02:10:00 2.1 C 86 % 0.01 C
28 18-11-2018 02:15:00 2.2 C 86 % 0.11 C
29 18-11-2018 02:20:00 2.3 C 85 % 0.04 C
30 18-11-2018 02:25:00 2.1 C 85 % -0.15 C
31 18-11-2018 02:30:00 2.1 C 86 % 0.01 C
32 18-11-2018 02:35:00 2.1 C 86 % 0.01 C
33 18-11-2018 02:40:00 2.1 C 86 % 0.01 C
34 18-11-2018 02:45:00 1.9 C 86 % -0.19 C
35 18-11-2018 02:50:00 1.8 C 86 % -0.29 C
36 18-11-2018 02:55:00 1.8 C 87 % -0.13 C
37 18-11-2018 03:00:00 1.8 C 87 % -0.13 C
38 18-11-2018 03:05:00 1.8 C 87 % -0.13 C
39 18-11-2018 03:10:00 1.9 C 87 % -0.03 C
40 18-11-2018 03:15:00 1.9 C 87 % -0.03 C
41 18-11-2018 03:20:00 2 C 87 % 0.07 C
42 18-11-2018 03:25:00 1.9 C 86 % -0.19 C
43 18-11-2018 03:30:00 1.8 C 86 % -0.29 C
44 18-11-2018 03:35:00 1.7 C 86 % -0.38 C
45 18-11-2018 03:40:00 1.5 C 87 % -0.42 C
46 18-11-2018 03:45:00 1.4 C 87 % -0.52 C
47 18-11-2018 03:50:00 1.2 C 87 % -0.72 C
48 18-11-2018 03:55:00 1.2 C 88 % -0.56 C
49 18-11-2018 04:00:00 1.1 C 88 % -0.66 C
50 18-11-2018 04:05:00 0.9 C 88 % -0.86 C
Sensor: Nr:Datum:Temp:Feuchte:Taupunkt:
Aussen-T/F 51 18-11-2018 04:10:00 0.9 C 88 % -0.86 C
52 18-11-2018 04:15:00 0.9 C 89 % -0.7 C
53 18-11-2018 04:20:00 0.9 C 89 % -0.7 C
54 18-11-2018 04:25:00 1.1 C 89 % -0.51 C
55 18-11-2018 04:30:00 1.2 C 88 % -0.56 C
56 18-11-2018 04:35:00 1.2 C 88 % -0.56 C
57 18-11-2018 04:40:00 1.3 C 88 % -0.46 C
58 18-11-2018 04:45:00 1.4 C 88 % -0.36 C
59 18-11-2018 04:50:00 1.4 C 87 % -0.52 C
60 18-11-2018 04:55:00 1.3 C 87 % -0.62 C
61 18-11-2018 05:00:00 1.3 C 87 % -0.62 C
62 18-11-2018 05:05:00 1.2 C 87 % -0.72 C
63 18-11-2018 05:10:00 1.3 C 87 % -0.62 C
64 18-11-2018 05:15:00 1.2 C 86 % -0.88 C
65 18-11-2018 05:20:00 1.1 C 87 % -0.82 C
66 18-11-2018 05:25:00 1 C 87 % -0.91 C
67 18-11-2018 05:30:00 0.8 C 87 % -1.11 C
68 18-11-2018 05:35:00 0.7 C 87 % -1.21 C
69 18-11-2018 05:40:00 0.6 C 87 % -1.31 C
70 18-11-2018 05:45:00 0.7 C 89 % -0.9 C
71 18-11-2018 05:50:00 0.7 C 88 % -1.05 C
72 18-11-2018 05:55:00 0.8 C 88 % -0.96 C
73 18-11-2018 06:00:00 0.8 C 88 % -0.96 C
74 18-11-2018 06:05:00 0.7 C 87 % -1.21 C
75 18-11-2018 06:10:00 0.4 C 87 % -1.5 C
Sensor: Nr:Datum:Temp:Feuchte:Taupunkt:
Aussen-T/F 76 18-11-2018 06:15:00 0.2 C 88 % -1.55 C
77 18-11-2018 06:20:00 0.1 C 88 % -1.65 C
78 18-11-2018 06:25:00 -0.1 C 89 % -1.69 C
79 18-11-2018 06:30:00 -0.1 C 89 % -1.69 C
80 18-11-2018 06:35:00 -0.2 C 89 % -1.79 C
81 18-11-2018 06:40:00 -0.3 C 89 % -1.89 C
82 18-11-2018 06:45:00 -0.5 C 89 % -2.09 C
83 18-11-2018 06:50:00 -0.6 C 90 % -2.03 C
84 18-11-2018 06:55:00 -0.7 C 90 % -2.13 C
85 18-11-2018 07:00:00 -0.7 C 91 % -1.98 C
86 18-11-2018 07:05:00 -0.7 C 91 % -1.98 C
87 18-11-2018 07:10:00 -0.7 C 91 % -1.98 C
88 18-11-2018 07:15:00 -0.8 C 91 % -2.08 C
89 18-11-2018 07:20:00 -0.9 C 91 % -2.18 C
90 18-11-2018 07:25:00 -0.9 C 91 % -2.18 C
91 18-11-2018 07:30:00 -0.9 C 91 % -2.18 C
92 18-11-2018 07:35:00 -1 C 91 % -2.28 C
93 18-11-2018 07:40:00 -1 C 91 % -2.28 C
94 18-11-2018 07:45:00 -1 C 92 % -2.13 C
95 18-11-2018 07:50:00 -1.1 C 92 % -2.23 C
96 18-11-2018 07:55:00 -1.1 C 92 % -2.23 C
97 18-11-2018 08:00:00 -1.1 C 92 % -2.23 C
98 18-11-2018 08:05:00 -1 C 92 % -2.13 C
99 18-11-2018 08:10:00 -0.8 C 93 % -1.79 C
100 18-11-2018 08:15:00 -0.6 C 93 % -1.59 C
Sensor: Nr:Datum:Temp:Feuchte:Taupunkt:
Aussen-T/F 101 18-11-2018 08:20:00 -0.5 C 92 % -1.64 C
102 18-11-2018 08:25:00 -0.5 C 92 % -1.64 C
103 18-11-2018 08:30:00 -0.3 C 91 % -1.59 C
104 18-11-2018 08:35:00 0.1 C 90 % -1.34 C
105 18-11-2018 08:40:00 0.3 C 89 % -1.29 C
106 18-11-2018 08:45:00 0.3 C 89 % -1.29 C
107 18-11-2018 08:50:00 0.2 C 89 % -1.39 C
108 18-11-2018 08:55:00 0.1 C 89 % -1.49 C
109 18-11-2018 09:00:00 0 C 89 % -1.59 C
110 18-11-2018 09:05:00 -0.1 C 90 % -1.54 C
111 18-11-2018 09:10:00 -0.1 C 90 % -1.54 C
112 18-11-2018 09:15:00 -0.1 C 90 % -1.54 C
113 18-11-2018 09:20:00 -0.2 C 90 % -1.64 C
114 18-11-2018 09:25:00 -0.2 C 90 % -1.64 C
115 18-11-2018 09:30:00 -0.2 C 90 % -1.64 C
116 18-11-2018 09:35:00 -0.2 C 91 % -1.49 C
117 18-11-2018 09:40:00 -0.2 C 91 % -1.49 C
118 18-11-2018 09:45:00 -0.2 C 91 % -1.49 C
119 18-11-2018 09:50:00 -0.2 C 91 % -1.49 C
120 18-11-2018 09:55:00 -0.2 C 91 % -1.49 C
121 18-11-2018 10:00:00 -0.2 C 91 % -1.49 C
122 18-11-2018 10:05:00 -0.1 C 91 % -1.39 C
123 18-11-2018 10:10:00 -0.1 C 91 % -1.39 C
124 18-11-2018 10:15:00 -0.1 C 91 % -1.39 C
125 18-11-2018 10:20:00 0 C 91 % -1.29 C
Sensor: Nr:Datum:Temp:Feuchte:Taupunkt:
Aussen-T/F 126 18-11-2018 10:25:00 0 C 91 % -1.29 C
127 18-11-2018 10:30:00 0.1 C 91 % -1.19 C
128 18-11-2018 10:35:00 0.1 C 91 % -1.19 C
129 18-11-2018 10:40:00 0.1 C 91 % -1.19 C
130 18-11-2018 10:45:00 0.1 C 91 % -1.19 C
131 18-11-2018 10:50:00 0.2 C 91 % -1.09 C
132 18-11-2018 10:55:00 0.2 C 92 % -0.94 C
133 18-11-2018 11:00:00 0.3 C 92 % -0.84 C
134 18-11-2018 11:05:00 0.4 C 92 % -0.74 C
135 18-11-2018 11:10:00 0.6 C 92 % -0.55 C
136 18-11-2018 11:15:00 0.7 C 92 % -0.45 C
137 18-11-2018 11:20:00 0.8 C 91 % -0.5 C
138 18-11-2018 11:25:00 0.9 C 91 % -0.4 C
139 18-11-2018 11:30:00 1 C 91 % -0.3 C
140 18-11-2018 11:35:00 1.1 C 91 % -0.2 C
141 18-11-2018 11:40:00 1.2 C 91 % -0.1 C
142 18-11-2018 11:45:00 1.3 C 90 % -0.15 C
143 18-11-2018 11:50:00 1.4 C 90 % -0.06 C
144 18-11-2018 11:55:00 1.5 C 90 % 0.04 C
145 18-11-2018 12:00:00 1.6 C 89 % -0.01 C
146 18-11-2018 12:05:00 1.7 C 89 % 0.09 C
147 18-11-2018 12:10:00 1.7 C 89 % 0.09 C
148 18-11-2018 12:15:00 1.7 C 89 % 0.09 C
149 18-11-2018 12:20:00 1.8 C 89 % 0.19 C
150 18-11-2018 12:25:00 1.8 C 89 % 0.19 C
Sensor: Nr:Datum:Temp:Feuchte:Taupunkt:
Aussen-T/F 151 18-11-2018 12:30:00 1.8 C 89 % 0.19 C
152 18-11-2018 12:35:00 1.8 C 89 % 0.19 C
153 18-11-2018 12:40:00 1.9 C 89 % 0.28 C
154 18-11-2018 12:45:00 1.9 C 89 % 0.28 C
155 18-11-2018 12:50:00 2.1 C 89 % 0.48 C
156 18-11-2018 12:55:00 2.1 C 88 % 0.33 C
157 18-11-2018 13:00:00 2.2 C 88 % 0.42 C
158 18-11-2018 13:05:00 2.3 C 88 % 0.52 C
159 18-11-2018 13:10:00 2.4 C 88 % 0.62 C
160 18-11-2018 13:15:00 2.6 C 88 % 0.82 C
161 18-11-2018 13:20:00 2.6 C 88 % 0.82 C
162 18-11-2018 13:25:00 2.7 C 87 % 0.76 C
163 18-11-2018 13:30:00 2.8 C 87 % 0.86 C
164 18-11-2018 13:35:00 2.9 C 87 % 0.96 C
165 18-11-2018 13:40:00 3 C 86 % 0.89 C
166 18-11-2018 13:45:00 3.1 C 86 % 0.99 C
167 18-11-2018 13:50:00 3.2 C 86 % 1.09 C
168 18-11-2018 13:55:00 3.2 C 85 % 0.93 C
169 18-11-2018 14:00:00 3.3 C 85 % 1.03 C
170 18-11-2018 14:05:00 3.4 C 83 % 0.79 C
171 18-11-2018 14:10:00 3.6 C 81 % 0.65 C
172 18-11-2018 14:15:00 3.8 C 80 % 0.68 C
173 18-11-2018 14:20:00 3.9 C 79 % 0.6 C
174 18-11-2018 14:25:00 4.1 C 78 % 0.62 C
175 18-11-2018 14:30:00 4.3 C 77 % 0.63 C
Sensor: Nr:Datum:Temp:Feuchte:Taupunkt:
Aussen-T/F 176 18-11-2018 14:35:00 4.4 C 75 % 0.37 C
177 18-11-2018 14:40:00 4.8 C 69 % -0.39 C
178 18-11-2018 14:45:00 5.1 C 70 % 0.09 C
179 18-11-2018 14:50:00 5.4 C 63 % -1.06 C
180 18-11-2018 14:55:00 5.6 C 68 % 0.17 C
181 18-11-2018 15:00:00 5.6 C 70 % 0.57 C
182 18-11-2018 15:05:00 5.3 C 70 % 0.28 C
183 18-11-2018 15:10:00 5.2 C 71 % 0.38 C
184 18-11-2018 15:15:00 5 C 72 % 0.38 C
185 18-11-2018 15:20:00 4.9 C 72 % 0.29 C
186 18-11-2018 15:25:00 4.8 C 72 % 0.19 C
187 18-11-2018 15:30:00 4.7 C 73 % 0.28 C
188 18-11-2018 15:35:00 4.7 C 71 % -0.1 C
189 18-11-2018 15:40:00 4.7 C 72 % 0.09 C
190 18-11-2018 15:45:00 4.7 C 71 % -0.1 C
191 18-11-2018 15:50:00 4.8 C 72 % 0.19 C
192 18-11-2018 15:55:00 4.9 C 72 % 0.29 C
193 18-11-2018 16:00:00 5 C 73 % 0.57 C
194 18-11-2018 16:05:00 5.1 C 73 % 0.67 C
195 18-11-2018 16:10:00 5.1 C 70 % 0.09 C
196 18-11-2018 16:15:00 5.2 C 69 % -0.01 C
197 18-11-2018 16:20:00 5.1 C 70 % 0.09 C
198 18-11-2018 16:25:00 4.9 C 71 % 0.09 C
199 18-11-2018 16:30:00 4.7 C 71 % -0.1 C
200 18-11-2018 16:35:00 4.6 C 73 % 0.19 C
Sensor: Nr:Datum:Temp:Feuchte:Taupunkt:
Aussen-T/F 201 18-11-2018 16:40:00 4.4 C 72 % -0.19 C
202 18-11-2018 16:45:00 4.3 C 72 % -0.29 C
203 18-11-2018 16:50:00 4.3 C 72 % -0.29 C
204 18-11-2018 16:55:00 4.2 C 73 % -0.2 C
205 18-11-2018 17:00:00 4.2 C 71 % -0.58 C
206 18-11-2018 17:05:00 4.2 C 72 % -0.39 C
207 18-11-2018 17:10:00 4.2 C 71 % -0.58 C
208 18-11-2018 17:15:00 4.2 C 73 % -0.2 C
209 18-11-2018 17:20:00 4.1 C 72 % -0.48 C
210 18-11-2018 17:25:00 3.8 C 72 % -0.77 C
211 18-11-2018 17:30:00 3.6 C 72 % -0.96 C
212 18-11-2018 17:35:00 3.4 C 71 % -1.35 C
213 18-11-2018 17:40:00 3.3 C 71 % -1.44 C
214 18-11-2018 17:45:00 3.2 C 71 % -1.54 C
215 18-11-2018 17:50:00 3.2 C 67 % -2.32 C
216 18-11-2018 17:55:00 3.2 C 68 % -2.12 C
217 18-11-2018 18:00:00 3.2 C 68 % -2.12 C
218 18-11-2018 18:05:00 3.2 C 65 % -2.73 C
219 18-11-2018 18:10:00 3.2 C 68 % -2.12 C
220 18-11-2018 18:15:00 3.1 C 67 % -2.42 C
221 18-11-2018 18:20:00 3 C 66 % -2.72 C
222 18-11-2018 18:25:00 3 C 67 % -2.51 C
223 18-11-2018 18:30:00 2.8 C 67 % -2.7 C
224 18-11-2018 18:35:00 2.7 C 67 % -2.8 C
225 18-11-2018 18:40:00 2.6 C 65 % -3.3 C
Sensor: Nr:Datum:Temp:Feuchte:Taupunkt:
Aussen-T/F 226 18-11-2018 18:45:00 2.7 C 65 % -3.21 C
227 18-11-2018 18:50:00 2.7 C 66 % -3 C
228 18-11-2018 18:55:00 2.7 C 66 % -3 C
229 18-11-2018 19:00:00 2.7 C 65 % -3.21 C
230 18-11-2018 19:05:00 2.7 C 66 % -3 C
231 18-11-2018 19:10:00 2.6 C 65 % -3.3 C
232 18-11-2018 19:15:00 2.6 C 63 % -3.72 C
233 18-11-2018 19:20:00 2.5 C 63 % -3.81 C
234 18-11-2018 19:25:00 2.5 C 63 % -3.81 C
235 18-11-2018 19:30:00 2.5 C 65 % -3.4 C
236 18-11-2018 19:35:00 2.4 C 64 % -3.7 C
237 18-11-2018 19:40:00 2.4 C 64 % -3.7 C
238 18-11-2018 19:45:00 2.3 C 63 % -4 C
239 18-11-2018 19:50:00 2.3 C 65 % -3.59 C
240 18-11-2018 19:55:00 2.3 C 64 % -3.79 C
241 18-11-2018 20:00:00 2.3 C 64 % -3.79 C
242 18-11-2018 20:05:00 2.3 C 65 % -3.59 C
243 18-11-2018 20:10:00 2.3 C 60 % -4.65 C
244 18-11-2018 20:15:00 2.4 C 64 % -3.7 C
245 18-11-2018 20:20:00 2.3 C 65 % -3.59 C
246 18-11-2018 20:25:00 2.2 C 60 % -4.74 C
247 18-11-2018 20:30:00 2.2 C 63 % -4.1 C
248 18-11-2018 20:35:00 2.1 C 64 % -3.98 C
249 18-11-2018 20:40:00 2 C 61 % -4.71 C
250 18-11-2018 20:45:00 1.9 C 61 % -4.81 C
Sensor: Nr:Datum:Temp:Feuchte:Taupunkt:
Aussen-T/F 251 18-11-2018 20:50:00 2.1 C 57 % -5.51 C
252 18-11-2018 20:55:00 2.3 C 60 % -4.65 C
253 18-11-2018 21:00:00 2.4 C 58 % -5 C
254 18-11-2018 21:05:00 2.4 C 64 % -3.7 C
255 18-11-2018 21:10:00 2.4 C 65 % -3.49 C
256 18-11-2018 21:15:00 2.3 C 64 % -3.79 C
257 18-11-2018 21:20:00 2.2 C 65 % -3.68 C
258 18-11-2018 21:25:00 2.2 C 67 % -3.28 C
259 18-11-2018 21:30:00 2.1 C 66 % -3.57 C
260 18-11-2018 21:35:00 1.9 C 68 % -3.37 C
261 18-11-2018 21:40:00 1.8 C 67 % -3.66 C
262 18-11-2018 21:45:00 1.7 C 67 % -3.75 C
263 18-11-2018 21:50:00 1.6 C 65 % -4.25 C
264 18-11-2018 21:55:00 1.6 C 68 % -3.65 C
265 18-11-2018 22:00:00 1.4 C 67 % -4.04 C
266 18-11-2018 22:05:00 1.4 C 69 % -3.65 C
267 18-11-2018 22:10:00 1.4 C 66 % -4.24 C
268 18-11-2018 22:15:00 1.4 C 67 % -4.04 C
269 18-11-2018 22:20:00 1.4 C 66 % -4.24 C
270 18-11-2018 22:25:00 1.4 C 66 % -4.24 C
271 18-11-2018 22:30:00 1.3 C 66 % -4.34 C
272 18-11-2018 22:35:00 1.4 C 66 % -4.24 C
273 18-11-2018 22:40:00 1.4 C 66 % -4.24 C
274 18-11-2018 22:45:00 1.3 C 67 % -4.14 C
275 18-11-2018 22:50:00 1.2 C 69 % -3.84 C
Sensor: Nr:Datum:Temp:Feuchte:Taupunkt:
Aussen-T/F 276 18-11-2018 22:55:00 1 C 69 % -4.03 C
277 18-11-2018 23:00:00 0.9 C 66 % -4.72 C
278 18-11-2018 23:05:00 0.9 C 69 % -4.13 C
279 18-11-2018 23:10:00 0.8 C 69 % -4.22 C
280 18-11-2018 23:15:00 0.7 C 68 % -4.51 C
281 18-11-2018 23:20:00 0.6 C 70 % -4.23 C
282 18-11-2018 23:25:00 0.6 C 66 % -5 C
283 18-11-2018 23:30:00 0.6 C 66 % -5 C
284 18-11-2018 23:35:00 0.7 C 65 % -5.11 C
285 18-11-2018 23:40:00 1.1 C 65 % -4.73 C
286 18-11-2018 23:45:00 1.2 C 66 % -4.43 C
287 18-11-2018 23:50:00 1.3 C 66 % -4.34 C
288 18-11-2018 23:55:00 1.4 C 67 % -4.04 C

Legende:
   Min
   Max


Maximal/Minimal-Werte vom 18.11.2018 - 18.11.2018

Sensor Min Max Avg
Temp
(Aussen-T/F)
-1.1 °C
18-11-2018  07:50:00
5.6 °C
18-11-2018  14:55:00
1.86 °C
Feuchte
(Aussen-T/F)
57 %
18-11-2018  20:50:00
93 %
18-11-2018  08:10:00
79.83 %
Taupunkt
(Aussen-T/F)
-5.51 C
18-11-2018  20:50:00
1.09 C
18-11-2018  13:50:00
-1.36 C

Die Daten stammen von einer Davis Vantage Pro 2 Wetter-Station und werden unter Linux mit der Software wview2wettercgi und aufbereitet. Alle Angaben erfolgen ohne Gewähr für ihre Vollständigkeit oder Richtigkeit.
Kontakt: Rainer Krienke krienke@uni-koblenz.de . Meine Webseiten an der Uni Koblenz oder privat.
Version: $Revision: 0.78 $